sensor_id;sensor_type;location;lat;lon;timestamp;pressure;altitude;pressure_sealevel;temperature;humidity
52361;BME280;38294;42.966;1.608;2022-09-09T00:03:38;97211.56;;;23.14;52.36
52361;BME280;38294;42.966;1.608;2022-09-09T00:06:17;97211.72;;;22.94;52.77
52361;BME280;38294;42.966;1.608;2022-09-09T00:11:12;97206.22;;;22.30;54.51
52361;BME280;38294;42.966;1.608;2022-09-09T00:13:52;97209.47;;;22.28;54.26
52361;BME280;38294;42.966;1.608;2022-09-09T00:16:25;97205.47;;;22.90;52.71
52361;BME280;38294;42.966;1.608;2022-09-09T00:19:18;97201.91;;;23.02;52.31
52361;BME280;38294;42.966;1.608;2022-09-09T00:22:18;97204.25;;;22.75;52.86
52361;BME280;38294;42.966;1.608;2022-09-09T00:24:46;97204.97;;;22.63;53.28
52361;BME280;38294;42.966;1.608;2022-09-09T00:27:21;97202.50;;;23.10;51.84
52361;BME280;38294;42.966;1.608;2022-09-09T00:32:21;97193.97;;;23.01;52.01
52361;BME280;38294;42.966;1.608;2022-09-09T00:34:56;97206.75;;;23.15;51.68
52361;BME280;38294;42.966;1.608;2022-09-09T00:37:25;97201.91;;;23.02;52.33
52361;BME280;38294;42.966;1.608;2022-09-09T00:39:54;97201.28;;;23.11;51.84
52361;BME280;38294;42.966;1.608;2022-09-09T00:42:26;97202.44;;;22.97;52.01
52361;BME280;38294;42.966;1.608;2022-09-09T00:47:46;97205.41;;;22.62;52.89
52361;BME280;38294;42.966;1.608;2022-09-09T00:53:54;97213.50;;;22.56;53.04
52361;BME280;38294;42.966;1.608;2022-09-09T00:56:26;97213.03;;;22.45;53.17
52361;BME280;38294;42.966;1.608;2022-09-09T00:59:20;97206.19;;;22.46;53.24
52361;BME280;38294;42.966;1.608;2022-09-09T01:01:47;97217.19;;;22.37;53.21
52361;BME280;38294;42.966;1.608;2022-09-09T01:04:16;97207.44;;;22.45;53.06
52361;BME280;38294;42.966;1.608;2022-09-09T01:06:51;97197.09;;;22.29;53.33
52361;BME280;38294;42.966;1.608;2022-09-09T01:09:33;97199.75;;;22.33;53.27
52361;BME280;38294;42.966;1.608;2022-09-09T01:12:15;97198.53;;;22.50;52.94
52361;BME280;38294;42.966;1.608;2022-09-09T01:17:32;97187.13;;;22.44;52.76
52361;BME280;38294;42.966;1.608;2022-09-09T01:20:15;97188.94;;;22.51;52.46
52361;BME280;38294;42.966;1.608;2022-09-09T01:28:36;97209.53;;;22.41;52.86
52361;BME280;38294;42.966;1.608;2022-09-09T01:31:06;97203.94;;;22.57;52.56
52361;BME280;38294;42.966;1.608;2022-09-09T01:33:34;97220.69;;;22.57;52.55
52361;BME280;38294;42.966;1.608;2022-09-09T01:36:09;97221.00;;;22.75;52.27
52361;BME280;38294;42.966;1.608;2022-09-09T01:38:36;97218.16;;;22.46;53.00
52361;BME280;38294;42.966;1.608;2022-09-09T01:41:02;97207.06;;;22.59;52.60
52361;BME280;38294;42.966;1.608;2022-09-09T01:43:28;97219.72;;;22.80;51.95
52361;BME280;38294;42.966;1.608;2022-09-09T01:45:56;97225.53;;;22.85;51.73
52361;BME280;38294;42.966;1.608;2022-09-09T01:51:26;97239.16;;;22.83;51.33
52361;BME280;38294;42.966;1.608;2022-09-09T01:56:39;97243.97;;;22.18;53.07
52361;BME280;38294;42.966;1.608;2022-09-09T01:59:26;97241.16;;;22.83;51.54
52361;BME280;38294;42.966;1.608;2022-09-09T02:02:11;97237.09;;;22.71;51.63
52361;BME280;38294;42.966;1.608;2022-09-09T02:04:57;97241.28;;;22.47;52.24
52361;BME280;38294;42.966;1.608;2022-09-09T02:10:08;97242.56;;;22.42;52.44
52361;BME280;38294;42.966;1.608;2022-09-09T02:12:42;97237.84;;;22.56;52.03
52361;BME280;38294;42.966;1.608;2022-09-09T02:15:21;97240.53;;;22.91;51.35
52361;BME280;38294;42.966;1.608;2022-09-09T02:17:49;97240.44;;;22.95;51.10
52361;BME280;38294;42.966;1.608;2022-09-09T02:20:18;97250.88;;;23.07;50.65
52361;BME280;38294;42.966;1.608;2022-09-09T02:22:47;97238.94;;;23.07;50.98
52361;BME280;38294;42.966;1.608;2022-09-09T02:25:17;97234.38;;;23.13;50.94
52361;BME280;38294;42.966;1.608;2022-09-09T02:27:46;97226.63;;;22.43;53.26
52361;BME280;38294;42.966;1.608;2022-09-09T02:30:13;97224.25;;;21.93;54.95
52361;BME280;38294;42.966;1.608;2022-09-09T02:32:42;97224.53;;;22.31;53.95
52361;BME280;38294;42.966;1.608;2022-09-09T02:35:12;97217.97;;;22.54;53.37
52361;BME280;38294;42.966;1.608;2022-09-09T02:37:41;97216.97;;;22.15;54.14
52361;BME280;38294;42.966;1.608;2022-09-09T02:40:09;97228.03;;;22.19;53.76
52361;BME280;38294;42.966;1.608;2022-09-09T02:42:43;97233.00;;;22.11;53.64
52361;BME280;38294;42.966;1.608;2022-09-09T02:45:11;97247.03;;;22.56;52.84
52361;BME280;38294;42.966;1.608;2022-09-09T02:51:01;97242.41;;;22.49;52.38
52361;BME280;38294;42.966;1.608;2022-09-09T02:56:15;97243.91;;;22.70;52.14
52361;BME280;38294;42.966;1.608;2022-09-09T02:58:41;97235.34;;;22.77;51.94
52361;BME280;38294;42.966;1.608;2022-09-09T03:01:07;97240.50;;;23.08;50.95
52361;BME280;38294;42.966;1.608;2022-09-09T03:03:34;97233.69;;;22.80;51.84
52361;BME280;38294;42.966;1.608;2022-09-09T03:06:00;97228.44;;;22.66;52.14
52361;BME280;38294;42.966;1.608;2022-09-09T03:08:25;97234.81;;;22.34;53.00
52361;BME280;38294;42.966;1.608;2022-09-09T03:10:54;97231.84;;;22.73;52.30
52361;BME280;38294;42.966;1.608;2022-09-09T03:13:20;97229.88;;;23.02;51.33
52361;BME280;38294;42.966;1.608;2022-09-09T03:15:47;97228.19;;;23.05;51.06
52361;BME280;38294;42.966;1.608;2022-09-09T03:18:13;97218.91;;;22.79;51.47
52361;BME280;38294;42.966;1.608;2022-09-09T03:20:39;97220.13;;;23.07;50.93
52361;BME280;38294;42.966;1.608;2022-09-09T03:23:07;97228.03;;;23.25;50.26
52361;BME280;38294;42.966;1.608;2022-09-09T03:25:32;97230.13;;;23.21;50.41
52361;BME280;38294;42.966;1.608;2022-09-09T03:27:58;97229.22;;;23.11;50.67
52361;BME280;38294;42.966;1.608;2022-09-09T03:30:26;97236.06;;;23.10;50.94
52361;BME280;38294;42.966;1.608;2022-09-09T03:32:52;97239.34;;;23.34;49.99
52361;BME280;38294;42.966;1.608;2022-09-09T03:35:18;97231.28;;;22.94;51.17
52361;BME280;38294;42.966;1.608;2022-09-09T03:37:44;97240.84;;;23.10;50.79
52361;BME280;38294;42.966;1.608;2022-09-09T03:40:11;97235.63;;;23.24;50.38
52361;BME280;38294;42.966;1.608;2022-09-09T03:42:37;97240.44;;;23.24;50.45
52361;BME280;38294;42.966;1.608;2022-09-09T03:45:04;97241.91;;;22.71;51.74
52361;BME280;38294;42.966;1.608;2022-09-09T03:47:30;97233.97;;;22.98;50.95
52361;BME280;38294;42.966;1.608;2022-09-09T03:49:56;97239.50;;;23.14;50.58
52361;BME280;38294;42.966;1.608;2022-09-09T03:52:21;97245.00;;;23.46;49.61
52361;BME280;38294;42.966;1.608;2022-09-09T03:54:50;97246.78;;;23.40;49.60
52361;BME280;38294;42.966;1.608;2022-09-09T03:57:16;97246.47;;;23.51;49.43
52361;BME280;38294;42.966;1.608;2022-09-09T03:59:43;97245.72;;;23.63;49.35
52361;BME280;38294;42.966;1.608;2022-09-09T04:02:08;97244.59;;;23.61;49.26
52361;BME280;38294;42.966;1.608;2022-09-09T04:04:34;97231.84;;;23.31;50.26
52361;BME280;38294;42.966;1.608;2022-09-09T04:06:59;97236.19;;;23.48;49.74
52361;BME280;38294;42.966;1.608;2022-09-09T04:09:25;97235.09;;;23.58;49.68
52361;BME280;38294;42.966;1.608;2022-09-09T04:11:51;97235.16;;;23.42;50.13
52361;BME280;38294;42.966;1.608;2022-09-09T04:14:17;97235.16;;;23.42;50.11
52361;BME280;38294;42.966;1.608;2022-09-09T04:16:43;97236.53;;;23.63;49.72
52361;BME280;38294;42.966;1.608;2022-09-09T04:19:10;97229.03;;;23.60;50.09
52361;BME280;38294;42.966;1.608;2022-09-09T04:21:39;97237.00;;;23.61;49.92
52361;BME280;38294;42.966;1.608;2022-09-09T04:24:06;97235.88;;;23.71;49.50
52361;BME280;38294;42.966;1.608;2022-09-09T04:26:31;97241.13;;;23.69;49.58
52361;BME280;38294;42.966;1.608;2022-09-09T04:28:57;97237.91;;;23.83;49.20
52361;BME280;38294;42.966;1.608;2022-09-09T04:31:23;97237.22;;;23.67;49.50
52361;BME280;38294;42.966;1.608;2022-09-09T04:33:51;97238.22;;;23.98;48.95
52361;BME280;38294;42.966;1.608;2022-09-09T04:36:18;97238.00;;;23.80;49.07
52361;BME280;38294;42.966;1.608;2022-09-09T04:38:45;97244.19;;;23.87;49.17
52361;BME280;38294;42.966;1.608;2022-09-09T04:41:11;97247.06;;;23.71;49.20
52361;BME280;38294;42.966;1.608;2022-09-09T04:43:38;97247.75;;;23.88;48.95
52361;BME280;38294;42.966;1.608;2022-09-09T04:46:04;97250.53;;;23.88;48.51
52361;BME280;38294;42.966;1.608;2022-09-09T04:48:30;97258.91;;;23.75;48.88
52361;BME280;38294;42.966;1.608;2022-09-09T04:51:03;97259.16;;;23.68;48.99
52361;BME280;38294;42.966;1.608;2022-09-09T04:53:30;97263.38;;;23.60;49.07
52361;BME280;38294;42.966;1.608;2022-09-09T04:56:07;97266.00;;;23.80;48.94
52361;BME280;38294;42.966;1.608;2022-09-09T04:58:35;97263.88;;;23.96;48.48
52361;BME280;38294;42.966;1.608;2022-09-09T05:01:12;97270.03;;;24.04;48.06
52361;BME280;38294;42.966;1.608;2022-09-09T05:03:38;97266.69;;;23.96;48.06
52361;BME280;38294;42.966;1.608;2022-09-09T05:06:11;97276.13;;;24.15;47.56
52361;BME280;38294;42.966;1.608;2022-09-09T05:08:38;97277.03;;;23.58;49.15
52361;BME280;38294;42.966;1.608;2022-09-09T05:11:21;97278.59;;;23.72;48.96
52361;BME280;38294;42.966;1.608;2022-09-09T05:13:49;97272.91;;;23.88;48.76
52361;BME280;38294;42.966;1.608;2022-09-09T05:16:16;97271.81;;;23.98;48.30
52361;BME280;38294;42.966;1.608;2022-09-09T05:18:43;97277.59;;;23.78;48.87
52361;BME280;38294;42.966;1.608;2022-09-09T05:21:10;97278.09;;;24.02;48.17
52361;BME280;38294;42.966;1.608;2022-09-09T05:23:36;97287.72;;;24.01;48.25
52361;BME280;38294;42.966;1.608;2022-09-09T05:26:03;97284.00;;;23.91;48.59
52361;BME280;38294;42.966;1.608;2022-09-09T05:28:28;97281.97;;;23.67;49.23
52361;BME280;38294;42.966;1.608;2022-09-09T05:30:57;97280.59;;;24.13;48.22
52361;BME280;38294;42.966;1.608;2022-09-09T05:33:24;97281.09;;;24.08;48.81
52361;BME280;38294;42.966;1.608;2022-09-09T05:38:24;97290.53;;;24.14;48.69
52361;BME280;38294;42.966;1.608;2022-09-09T05:40:50;97298.38;;;24.06;49.26
52361;BME280;38294;42.966;1.608;2022-09-09T05:43:18;97299.28;;;24.16;48.99
52361;BME280;38294;42.966;1.608;2022-09-09T05:45:45;97300.69;;;24.08;48.63
52361;BME280;38294;42.966;1.608;2022-09-09T05:48:12;97301.84;;;24.10;49.12
52361;BME280;38294;42.966;1.608;2022-09-09T05:50:37;97299.47;;;24.09;49.33
52361;BME280;38294;42.966;1.608;2022-09-09T05:53:03;97292.19;;;23.86;49.31
52361;BME280;38294;42.966;1.608;2022-09-09T05:55:29;97296.34;;;24.07;49.38
52361;BME280;38294;42.966;1.608;2022-09-09T05:57:54;97301.59;;;24.04;49.71
52361;BME280;38294;42.966;1.608;2022-09-09T06:00:20;97305.41;;;23.98;50.52
52361;BME280;38294;42.966;1.608;2022-09-09T06:02:51;97306.91;;;24.15;49.69
52361;BME280;38294;42.966;1.608;2022-09-09T06:05:17;97318.09;;;24.15;50.38
52361;BME280;38294;42.966;1.608;2022-09-09T06:07:43;97311.59;;;23.35;50.42
52361;BME280;38294;42.966;1.608;2022-09-09T06:10:10;97309.94;;;23.38;51.57
52361;BME280;38294;42.966;1.608;2022-09-09T06:12:39;97310.00;;;24.04;49.31
52361;BME280;38294;42.966;1.608;2022-09-09T06:15:05;97309.09;;;24.08;49.08
52361;BME280;38294;42.966;1.608;2022-09-09T06:17:30;97305.69;;;24.29;48.26
52361;BME280;38294;42.966;1.608;2022-09-09T06:19:56;97316.31;;;24.21;48.18
52361;BME280;38294;42.966;1.608;2022-09-09T06:22:22;97310.03;;;24.30;47.92
52361;BME280;38294;42.966;1.608;2022-09-09T06:24:47;97308.38;;;24.45;47.80
52361;BME280;38294;42.966;1.608;2022-09-09T06:27:13;97309.56;;;24.56;47.35
52361;BME280;38294;42.966;1.608;2022-09-09T06:29:39;97318.06;;;24.66;47.36
52361;BME280;38294;42.966;1.608;2022-09-09T06:32:04;97320.22;;;24.24;47.98
52361;BME280;38294;42.966;1.608;2022-09-09T06:34:30;97323.25;;;24.67;47.20
52361;BME280;38294;42.966;1.608;2022-09-09T06:36:56;97330.66;;;24.61;47.48
52361;BME280;38294;42.966;1.608;2022-09-09T06:39:24;97327.03;;;24.73;47.14
52361;BME280;38294;42.966;1.608;2022-09-09T06:41:51;97328.31;;;24.34;47.49
52361;BME280;38294;42.966;1.608;2022-09-09T06:44:18;97327.94;;;24.70;46.96
52361;BME280;38294;42.966;1.608;2022-09-09T06:46:44;97326.47;;;24.78;46.66
52361;BME280;38294;42.966;1.608;2022-09-09T06:49:13;97326.81;;;24.93;46.50
52361;BME280;38294;42.966;1.608;2022-09-09T06:51:38;97332.22;;;25.22;46.00
52361;BME280;38294;42.966;1.608;2022-09-09T06:54:08;97331.56;;;25.18;45.75
52361;BME280;38294;42.966;1.608;2022-09-09T06:56:36;97331.47;;;25.08;45.70
52361;BME280;38294;42.966;1.608;2022-09-09T06:59:07;97338.91;;;25.02;45.70
52361;BME280;38294;42.966;1.608;2022-09-09T07:01:37;97333.41;;;25.33;45.15
52361;BME280;38294;42.966;1.608;2022-09-09T07:04:04;97332.16;;;25.13;46.04
52361;BME280;38294;42.966;1.608;2022-09-09T07:06:37;97335.63;;;25.17;46.73
52361;BME280;38294;42.966;1.608;2022-09-09T07:09:05;97338.69;;;25.31;46.34
52361;BME280;38294;42.966;1.608;2022-09-09T07:11:33;97332.44;;;25.27;46.33
52361;BME280;38294;42.966;1.608;2022-09-09T07:14:00;97330.06;;;25.04;47.04
52361;BME280;38294;42.966;1.608;2022-09-09T07:16:26;97325.72;;;24.90;47.27
52361;BME280;38294;42.966;1.608;2022-09-09T07:18:57;97325.78;;;25.34;46.45
52361;BME280;38294;42.966;1.608;2022-09-09T07:21:27;97321.34;;;25.58;45.86
52361;BME280;38294;42.966;1.608;2022-09-09T07:23:53;97322.97;;;25.68;45.32
52361;BME280;38294;42.966;1.608;2022-09-09T07:26:21;97327.34;;;25.91;44.74
52361;BME280;38294;42.966;1.608;2022-09-09T07:28:47;97317.13;;;26.06;44.71
52361;BME280;38294;42.966;1.608;2022-09-09T07:31:16;97313.66;;;26.24;44.01
52361;BME280;38294;42.966;1.608;2022-09-09T07:33:42;97323.91;;;26.18;44.22
52361;BME280;38294;42.966;1.608;2022-09-09T07:36:15;97317.13;;;26.37;43.58
52361;BME280;38294;42.966;1.608;2022-09-09T07:38:43;97317.00;;;26.09;44.01
52361;BME280;38294;42.966;1.608;2022-09-09T07:41:16;97310.16;;;25.89;44.78
52361;BME280;38294;42.966;1.608;2022-09-09T07:43:44;97305.16;;;25.28;45.96
52361;BME280;38294;42.966;1.608;2022-09-09T07:46:11;97301.81;;;25.76;44.59
52361;BME280;38294;42.966;1.608;2022-09-09T07:48:38;97301.03;;;25.97;43.88
52361;BME280;38294;42.966;1.608;2022-09-09T07:51:09;97300.69;;;25.95;43.70
52361;BME280;38294;42.966;1.608;2022-09-09T07:53:37;97304.19;;;26.08;43.62
52361;BME280;38294;42.966;1.608;2022-09-09T07:56:09;97303.44;;;26.39;42.94
52361;BME280;38294;42.966;1.608;2022-09-09T07:58:36;97300.38;;;26.55;42.46
52361;BME280;38294;42.966;1.608;2022-09-09T08:01:10;97292.66;;;26.86;41.62
52361;BME280;38294;42.966;1.608;2022-09-09T08:03:36;97288.00;;;27.01;41.32
52361;BME280;38294;42.966;1.608;2022-09-09T08:06:04;97291.28;;;27.09;41.39
52361;BME280;38294;42.966;1.608;2022-09-09T08:08:33;97290.63;;;26.87;41.72
52361;BME280;38294;42.966;1.608;2022-09-09T08:11:04;97284.25;;;27.41;40.85
52361;BME280;38294;42.966;1.608;2022-09-09T08:13:30;97287.94;;;28.01;39.63
52361;BME280;38294;42.966;1.608;2022-09-09T08:16:16;97282.06;;;27.63;40.37
52361;BME280;38294;42.966;1.608;2022-09-09T08:18:42;97283.81;;;27.60;40.17
52361;BME280;38294;42.966;1.608;2022-09-09T08:21:14;97285.69;;;28.33;38.84
52361;BME280;38294;42.966;1.608;2022-09-09T08:23:41;97283.00;;;27.69;40.43
52361;BME280;38294;42.966;1.608;2022-09-09T08:26:12;97286.56;;;27.97;39.73
52361;BME280;38294;42.966;1.608;2022-09-09T08:28:39;97296.56;;;28.49;39.34
52361;BME280;38294;42.966;1.608;2022-09-09T08:31:16;97289.13;;;28.60;38.94
52361;BME280;38294;42.966;1.608;2022-09-09T08:33:43;97299.88;;;28.80;38.23
52361;BME280;38294;42.966;1.608;2022-09-09T08:36:13;97299.41;;;28.82;38.14
52361;BME280;38294;42.966;1.608;2022-09-09T08:38:41;97305.22;;;29.02;37.61
52361;BME280;38294;42.966;1.608;2022-09-09T08:41:57;97306.81;;;28.28;39.30
52361;BME280;38294;42.966;1.608;2022-09-09T08:44:07;97305.53;;;27.42;41.20
52361;BME280;38294;42.966;1.608;2022-09-09T08:51:40;97320.97;;;27.10;42.19
52361;BME280;38294;42.966;1.608;2022-09-09T08:54:08;97318.31;;;27.16;42.21
52361;BME280;38294;42.966;1.608;2022-09-09T08:56:36;97322.41;;;26.26;43.62
52361;BME280;38294;42.966;1.608;2022-09-09T08:59:04;97325.06;;;27.91;40.34
52361;BME280;38294;42.966;1.608;2022-09-09T09:02:00;97331.13;;;27.98;40.44
52361;BME280;38294;42.966;1.608;2022-09-09T09:04:58;97335.84;;;28.10;40.52
52361;BME280;38294;42.966;1.608;2022-09-09T09:10:15;97353.63;;;28.77;39.46
52361;BME280;38294;42.966;1.608;2022-09-09T09:12:45;97356.94;;;27.42;41.62
52361;BME280;38294;42.966;1.608;2022-09-09T09:15:26;97353.75;;;28.31;40.24
52361;BME280;38294;42.966;1.608;2022-09-09T09:17:54;97357.66;;;28.34;39.46
52361;BME280;38294;42.966;1.608;2022-09-09T09:20:42;97370.59;;;28.07;40.20
52361;BME280;38294;42.966;1.608;2022-09-09T09:23:19;97368.09;;;28.93;38.06
52361;BME280;38294;42.966;1.608;2022-09-09T09:25:47;97370.28;;;28.56;38.94
52361;BME280;38294;42.966;1.608;2022-09-09T09:28:25;97370.19;;;28.84;38.57
52361;BME280;38294;42.966;1.608;2022-09-09T09:30:53;97379.50;;;27.88;39.44
52361;BME280;38294;42.966;1.608;2022-09-09T09:33:39;97382.31;;;27.60;40.32
52361;BME280;38294;42.966;1.608;2022-09-09T09:36:08;97385.66;;;27.10;41.81
52361;BME280;38294;42.966;1.608;2022-09-09T09:38:35;97394.91;;;27.20;41.76
52361;BME280;38294;42.966;1.608;2022-09-09T09:41:02;97377.66;;;28.54;39.15
52361;BME280;38294;42.966;1.608;2022-09-09T09:43:30;97384.59;;;28.35;39.66
52361;BME280;38294;42.966;1.608;2022-09-09T09:45:56;97388.03;;;28.39;39.73
52361;BME280;38294;42.966;1.608;2022-09-09T09:48:23;97388.97;;;28.36;40.25
52361;BME280;38294;42.966;1.608;2022-09-09T09:51:01;97395.84;;;28.44;40.00
52361;BME280;38294;42.966;1.608;2022-09-09T09:53:34;97396.50;;;28.39;40.22
52361;BME280;38294;42.966;1.608;2022-09-09T09:58:31;97406.44;;;27.12;42.95
52361;BME280;38294;42.966;1.608;2022-09-09T10:00:59;97402.13;;;27.30;42.70
52361;BME280;38294;42.966;1.608;2022-09-09T10:03:31;97408.28;;;27.55;41.77
52361;BME280;38294;42.966;1.608;2022-09-09T10:05:57;97400.47;;;27.01;43.04
52361;BME280;38294;42.966;1.608;2022-09-09T10:08:25;97417.78;;;26.91;43.77
52361;BME280;38294;42.966;1.608;2022-09-09T10:16:26;97419.22;;;27.72;41.88
52361;BME280;38294;42.966;1.608;2022-09-09T10:19:21;97416.41;;;27.90;41.47
52361;BME280;38294;42.966;1.608;2022-09-09T10:36:18;97417.78;;;28.31;41.04
52361;BME280;38294;42.966;1.608;2022-09-09T10:38:52;97418.44;;;27.80;42.05
52361;BME280;38294;42.966;1.608;2022-09-09T10:41:31;97414.56;;;28.74;40.24
52361;BME280;38294;42.966;1.608;2022-09-09T10:50:06;97416.47;;;27.23;43.45
52361;BME280;38294;42.966;1.608;2022-09-09T10:53:08;97419.66;;;26.32;44.73
52361;BME280;38294;42.966;1.608;2022-09-09T10:55:41;97422.47;;;26.85;44.29
52361;BME280;38294;42.966;1.608;2022-09-09T10:58:13;97420.63;;;27.76;42.42
52361;BME280;38294;42.966;1.608;2022-09-09T11:00:50;97415.88;;;26.57;44.84
52361;BME280;38294;42.966;1.608;2022-09-09T11:03:24;97417.50;;;26.98;44.08
52361;BME280;38294;42.966;1.608;2022-09-09T11:06:14;97411.09;;;27.64;42.17
52361;BME280;38294;42.966;1.608;2022-09-09T11:08:42;97410.44;;;26.93;43.77
52361;BME280;38294;42.966;1.608;2022-09-09T11:11:16;97421.47;;;27.28;43.99
52361;BME280;38294;42.966;1.608;2022-09-09T11:14:09;97438.94;;;25.40;49.95
52361;BME280;38294;42.966;1.608;2022-09-09T11:22:27;97439.44;;;24.09;54.65
52361;BME280;38294;42.966;1.608;2022-09-09T11:24:54;97440.41;;;24.02;54.16
52361;BME280;38294;42.966;1.608;2022-09-09T11:27:41;97443.75;;;24.26;53.24
52361;BME280;38294;42.966;1.608;2022-09-09T11:33:17;97455.66;;;23.85;54.19
52361;BME280;38294;42.966;1.608;2022-09-09T11:38:41;97457.09;;;24.34;53.61
52361;BME280;38294;42.966;1.608;2022-09-09T11:41:10;97466.38;;;23.74;55.50
52361;BME280;38294;42.966;1.608;2022-09-09T11:43:47;97457.94;;;23.90;55.83
52361;BME280;38294;42.966;1.608;2022-09-09T11:46:16;97461.22;;;23.72;55.97
52361;BME280;38294;42.966;1.608;2022-09-09T11:48:58;97460.91;;;23.22;58.11
52361;BME280;38294;42.966;1.608;2022-09-09T11:51:29;97464.41;;;23.26;57.81
52361;BME280;38294;42.966;1.608;2022-09-09T11:53:59;97473.06;;;23.92;56.10
52361;BME280;38294;42.966;1.608;2022-09-09T11:56:32;97480.78;;;22.91;60.14
52361;BME280;38294;42.966;1.608;2022-09-09T11:59:04;97476.00;;;22.36;63.15
52361;BME280;38294;42.966;1.608;2022-09-09T12:01:38;97476.84;;;22.33;63.91
52361;BME280;38294;42.966;1.608;2022-09-09T12:04:37;97479.47;;;22.60;62.82
52361;BME280;38294;42.966;1.608;2022-09-09T12:07:38;97475.06;;;23.15;62.42
52361;BME280;38294;42.966;1.608;2022-09-09T12:10:38;97484.09;;;22.31;65.13
52361;BME280;38294;42.966;1.608;2022-09-09T12:13:20;97479.25;;;21.72;67.65
52361;BME280;38294;42.966;1.608;2022-09-09T12:15:51;97483.16;;;22.18;67.26
52361;BME280;38294;42.966;1.608;2022-09-09T12:18:35;97489.66;;;21.91;68.60
52361;BME280;38294;42.966;1.608;2022-09-09T12:22:03;97486.03;;;21.71;69.27
52361;BME280;38294;42.966;1.608;2022-09-09T12:24:13;97489.81;;;21.61;70.88
52361;BME280;38294;42.966;1.608;2022-09-09T12:26:47;97477.81;;;21.18;71.16
52361;BME280;38294;42.966;1.608;2022-09-09T12:29:22;97491.25;;;21.92;69.32
52361;BME280;38294;42.966;1.608;2022-09-09T12:31:58;97497.69;;;21.66;69.83
52361;BME280;38294;42.966;1.608;2022-09-09T12:34:41;97494.88;;;21.66;70.28
52361;BME280;38294;42.966;1.608;2022-09-09T12:37:29;97497.00;;;21.12;71.21
52361;BME280;38294;42.966;1.608;2022-09-09T12:40:00;97496.94;;;21.39;70.10
52361;BME280;38294;42.966;1.608;2022-09-09T12:42:28;97506.75;;;21.24;70.34
52361;BME280;38294;42.966;1.608;2022-09-09T12:44:55;97505.56;;;21.48;68.87
52361;BME280;38294;42.966;1.608;2022-09-09T12:47:26;97508.47;;;21.64;69.05
52361;BME280;38294;42.966;1.608;2022-09-09T12:49:54;97508.22;;;21.55;68.26
52361;BME280;38294;42.966;1.608;2022-09-09T12:52:33;97513.56;;;21.92;67.39
52361;BME280;38294;42.966;1.608;2022-09-09T12:55:03;97520.66;;;21.97;66.75
52361;BME280;38294;42.966;1.608;2022-09-09T12:57:37;97524.75;;;22.71;64.79
52361;BME280;38294;42.966;1.608;2022-09-09T13:00:14;97533.47;;;22.54;65.46
52361;BME280;38294;42.966;1.608;2022-09-09T13:07:46;97523.28;;;22.04;67.17
52361;BME280;38294;42.966;1.608;2022-09-09T13:10:14;97524.19;;;21.55;69.69
52361;BME280;38294;42.966;1.608;2022-09-09T13:12:41;97529.91;;;22.33;66.83
52361;BME280;38294;42.966;1.608;2022-09-09T13:15:24;97541.72;;;22.80;64.66
52361;BME280;38294;42.966;1.608;2022-09-09T13:17:55;97533.53;;;22.89;64.23
52361;BME280;38294;42.966;1.608;2022-09-09T13:20:22;97540.53;;;23.14;63.64
52361;BME280;38294;42.966;1.608;2022-09-09T13:22:50;97534.13;;;23.49;61.62
52361;BME280;38294;42.966;1.608;2022-09-09T13:25:26;97534.41;;;22.86;62.83
52361;BME280;38294;42.966;1.608;2022-09-09T13:28:03;97541.06;;;23.09;60.22
52361;BME280;38294;42.966;1.608;2022-09-09T13:30:36;97531.75;;;23.80;59.52
52361;BME280;38294;42.966;1.608;2022-09-09T13:33:04;97537.75;;;23.94;57.31
52361;BME280;38294;42.966;1.608;2022-09-09T13:35:31;97521.38;;;24.79;55.33
52361;BME280;38294;42.966;1.608;2022-09-09T13:37:58;97528.94;;;23.96;57.18
52361;BME280;38294;42.966;1.608;2022-09-09T13:40:24;97513.69;;;24.42;55.56
52361;BME280;38294;42.966;1.608;2022-09-09T13:42:56;97519.81;;;24.37;57.58
52361;BME280;38294;42.966;1.608;2022-09-09T13:45:24;97515.09;;;24.75;54.77
52361;BME280;38294;42.966;1.608;2022-09-09T13:47:53;97516.56;;;24.80;54.33
52361;BME280;38294;42.966;1.608;2022-09-09T13:50:30;97530.50;;;25.34;53.05
52361;BME280;38294;42.966;1.608;2022-09-09T13:52:57;97518.88;;;24.97;54.13
52361;BME280;38294;42.966;1.608;2022-09-09T13:55:26;97521.56;;;25.51;53.50
52361;BME280;38294;42.966;1.608;2022-09-09T13:57:57;97523.22;;;25.24;52.92
52361;BME280;38294;42.966;1.608;2022-09-09T14:00:24;97521.31;;;25.08;53.25
52361;BME280;38294;42.966;1.608;2022-09-09T14:02:50;97518.97;;;25.32;51.53
52361;BME280;38294;42.966;1.608;2022-09-09T14:05:17;97514.69;;;25.15;50.86
52361;BME280;38294;42.966;1.608;2022-09-09T14:07:43;97516.06;;;25.35;50.76
52361;BME280;38294;42.966;1.608;2022-09-09T14:10:10;97513.38;;;25.19;51.75
52361;BME280;38294;42.966;1.608;2022-09-09T14:12:36;97514.16;;;25.32;49.78
52361;BME280;38294;42.966;1.608;2022-09-09T14:15:03;97508.75;;;25.50;50.47
52361;BME280;38294;42.966;1.608;2022-09-09T14:17:28;97504.44;;;24.00;53.69
52361;BME280;38294;42.966;1.608;2022-09-09T14:19:55;97505.84;;;23.92;54.74
52361;BME280;38294;42.966;1.608;2022-09-09T14:22:21;97498.38;;;23.73;54.80
52361;BME280;38294;42.966;1.608;2022-09-09T14:24:47;97497.25;;;23.70;54.34
52361;BME280;38294;42.966;1.608;2022-09-09T14:27:13;97504.66;;;23.28;55.17
52361;BME280;38294;42.966;1.608;2022-09-09T14:29:38;97496.41;;;24.31;53.51
52361;BME280;38294;42.966;1.608;2022-09-09T14:32:04;97495.31;;;23.83;54.10
52361;BME280;38294;42.966;1.608;2022-09-09T14:34:29;97494.59;;;23.79;54.05
52361;BME280;38294;42.966;1.608;2022-09-09T14:36:58;97490.34;;;24.20;52.34
52361;BME280;38294;42.966;1.608;2022-09-09T14:39:23;97481.97;;;24.32;52.32
52361;BME280;38294;42.966;1.608;2022-09-09T14:41:49;97480.72;;;24.75;51.13
52361;BME280;38294;42.966;1.608;2022-09-09T14:44:14;97483.66;;;24.96;50.52
52361;BME280;38294;42.966;1.608;2022-09-09T14:46:41;97482.38;;;24.72;50.07
52361;BME280;38294;42.966;1.608;2022-09-09T14:49:08;97482.47;;;24.69;50.80
52361;BME280;38294;42.966;1.608;2022-09-09T14:51:35;97476.09;;;24.68;50.76